createdAt,value
2018-11-22T00:16:02.000Z,45.077
2018-11-22T00:26:02.000Z,45.03
2018-11-22T00:36:02.000Z,45.037
2018-11-22T00:56:02.000Z,45.06
2018-11-22T01:06:02.000Z,45.045
2018-11-22T01:16:02.000Z,45.073
2018-11-22T01:26:04.000Z,45.091
2018-11-22T01:36:02.000Z,45.098
2018-11-22T01:46:02.000Z,45.04
2018-11-22T01:56:02.000Z,45.092
2018-11-22T02:06:02.000Z,44.846
2018-11-22T02:16:02.000Z,44.842
2018-11-22T02:26:03.000Z,44.872
2018-11-22T02:36:02.000Z,44.911
2018-11-22T02:46:02.000Z,45.004
2018-11-22T02:56:02.000Z,44.958
2018-11-22T03:06:02.000Z,44.941
2018-11-22T03:16:02.000Z,45.059
2018-11-22T03:26:02.000Z,45.086
2018-11-22T03:36:02.000Z,45.083
2018-11-22T03:46:02.000Z,45.102
2018-11-22T03:56:02.000Z,45.098
2018-11-22T04:06:02.000Z,45.206
2018-11-22T04:16:03.000Z,45.168
2018-11-22T04:26:02.000Z,45.24
2018-11-22T04:36:02.000Z,45.281
2018-11-22T04:46:02.000Z,45.277
2018-11-22T04:56:02.000Z,45.306
2018-11-22T05:06:02.000Z,45.259
2018-11-22T05:16:02.000Z,45.355
2018-11-22T05:26:02.000Z,45.373
2018-11-22T05:36:02.000Z,45.348
2018-11-22T05:46:02.000Z,45.401
2018-11-22T05:56:02.000Z,45.462
2018-11-22T06:06:02.000Z,45.438
2018-11-22T06:16:03.000Z,45.554
2018-11-22T06:26:02.000Z,45.541
2018-11-22T06:36:03.000Z,45.529
2018-11-22T06:46:03.000Z,45.537
2018-11-22T06:56:03.000Z,45.6
2018-11-22T07:06:03.000Z,45.598
2018-11-22T07:16:03.000Z,45.607
2018-11-22T07:26:03.000Z,45.573
2018-11-22T07:36:03.000Z,45.735
2018-11-22T07:46:03.000Z,45.632
2018-11-22T07:56:03.000Z,45.377
2018-11-22T08:06:03.000Z,45.296
2018-11-22T08:16:03.000Z,45.337
2018-11-22T08:26:03.000Z,45.401
2018-11-22T08:36:03.000Z,45.432
2018-11-22T08:46:03.000Z,45.475
2018-11-22T08:56:03.000Z,45.443
2018-11-22T09:06:03.000Z,45.532
2018-11-22T18:26:04.000Z,48.405
2018-11-22T18:36:04.000Z,48.327
2018-11-22T18:46:06.000Z,48.576
2018-11-22T18:56:05.000Z,48.798
2018-11-22T19:06:04.000Z,49.079
2018-11-22T19:16:05.000Z,48.658
2018-11-22T19:26:04.000Z,48.607
2018-11-22T19:36:05.000Z,48.488
2018-11-22T19:46:04.000Z,47.763
2018-11-22T19:56:04.000Z,47.671
2018-11-22T20:06:04.000Z,47.578
2018-11-22T20:16:06.000Z,47.168
2018-11-22T20:26:04.000Z,47.066
2018-11-22T20:36:04.000Z,46.844
2018-11-22T20:46:04.000Z,46.53
2018-11-22T20:56:04.000Z,46.415
2018-11-22T21:06:04.000Z,46.323
2018-11-22T21:16:04.000Z,46.456
2018-11-22T21:26:04.000Z,46.055
2018-11-22T21:36:04.000Z,46.29
2018-11-22T21:46:04.000Z,46.141
2018-11-22T21:56:04.000Z,46.306
2018-11-22T22:06:04.000Z,45.777
2018-11-22T22:16:04.000Z,45.637
2018-11-22T22:26:04.000Z,45.4
2018-11-22T22:36:04.000Z,45.462
2018-11-22T22:46:04.000Z,45.504
2018-11-22T22:56:04.000Z,45.728
2018-11-22T23:06:04.000Z,45.867
2018-11-22T23:16:07.000Z,45.843
2018-11-22T23:26:05.000Z,46.002
2018-11-22T23:36:05.000Z,46.01
2018-11-22T23:46:05.000Z,46.136
2018-11-22T23:56:08.000Z,46.176
